createdAt,value
2023-01-09T00:00:58.918Z,65.43
2023-01-09T00:03:26.310Z,66.20
2023-01-09T00:05:53.779Z,72.38
2023-01-09T00:08:21.349Z,74.75
2023-01-09T00:10:49.969Z,72.43
2023-01-09T00:13:18.309Z,69.45
2023-01-09T00:15:45.949Z,69.78
2023-01-09T00:18:13.432Z,72.18
2023-01-09T00:20:41.115Z,77.57
2023-01-09T00:23:08.623Z,68.93
2023-01-09T00:25:36.808Z,57.20
2023-01-09T00:28:04.290Z,64.75
2023-01-09T00:30:32.587Z,65.95
2023-01-09T00:33:00.048Z,70.90
2023-01-09T00:35:28.717Z,68.85
2023-01-09T00:37:56.186Z,80.10
2023-01-09T00:40:23.641Z,60.28
2023-01-09T00:42:54.749Z,62.05
2023-01-09T00:45:28.724Z,70.57
2023-01-09T00:47:58.587Z,69.80
2023-01-09T00:50:29.332Z,78.70
2023-01-09T00:52:57.623Z,70.47
2023-01-09T00:55:25.227Z,67.15
2023-01-09T00:57:52.712Z,66.40
2023-01-09T01:00:20.221Z,95.95
2023-01-09T01:02:48.597Z,115.18
2023-01-09T01:05:34.535Z,111.05
2023-01-09T01:08:02.016Z,74.10
2023-01-09T01:10:29.403Z,92.45
2023-01-09T01:12:56.749Z,86.05
2023-01-09T01:15:25.771Z,84.38
2023-01-09T01:17:53.161Z,76.28
2023-01-09T01:20:20.580Z,77.50
2023-01-09T01:22:48.308Z,63.33
2023-01-09T01:25:17.246Z,72.68
2023-01-09T01:27:44.922Z,76.25
2023-01-09T01:30:13.678Z,70.05
2023-01-09T01:32:41.495Z,65.75
2023-01-09T01:35:09.460Z,81.00
2023-01-09T01:37:37.821Z,89.65
2023-01-09T01:40:06.216Z,64.85
2023-01-09T01:42:33.616Z,67.97
2023-01-09T01:45:07.095Z,91.57
2023-01-09T01:47:37.866Z,80.40
2023-01-09T01:50:08.672Z,81.05
2023-01-09T01:52:36.860Z,59.45
2023-01-09T01:55:04.984Z,75.20
2023-01-09T01:57:33.469Z,53.42
2023-01-09T02:00:03.199Z,80.68
2023-01-09T02:02:32.782Z,65.65
2023-01-09T02:05:01.480Z,52.35
2023-01-09T02:07:30.005Z,61.42
2023-01-09T02:09:57.814Z,62.70
2023-01-09T02:12:26.665Z,68.55
2023-01-09T02:14:58.432Z,75.00
2023-01-09T02:17:32.366Z,66.43
2023-01-09T02:20:14.502Z,67.63
2023-01-09T02:23:05.223Z,59.40
2023-01-09T02:25:41.464Z,48.28
2023-01-09T02:28:18.042Z,78.28
2023-01-09T02:31:04.318Z,74.95
2023-01-09T02:33:34.469Z,60.20
2023-01-09T02:36:11.047Z,72.82
2023-01-09T02:38:38.460Z,73.43
2023-01-09T02:41:21.593Z,67.22
2023-01-09T02:43:49.154Z,79.05
2023-01-09T02:46:21.068Z,50.15
2023-01-09T02:48:51.156Z,49.75
2023-01-09T02:51:33.004Z,61.38
2023-01-09T02:54:09.248Z,44.03
2023-01-09T02:56:48.776Z,59.22
2023-01-09T02:59:22.553Z,64.57
2023-01-09T03:01:52.829Z,51.30
2023-01-09T03:04:26.623Z,68.72
2023-01-09T03:06:54.409Z,63.95
2023-01-09T03:09:23.924Z,84.85
2023-01-09T03:11:53.645Z,42.67
2023-01-09T03:14:22.909Z,50.60
2023-01-09T03:16:53.164Z,59.90
2023-01-09T03:19:23.168Z,49.70
2023-01-09T03:21:51.162Z,57.20
2023-01-09T03:24:18.530Z,46.55
2023-01-09T03:26:46.056Z,58.05
2023-01-09T03:29:13.457Z,56.58
2023-01-09T03:31:40.940Z,39.17
2023-01-09T03:34:08.636Z,49.75
2023-01-09T03:36:36.062Z,53.60
2023-01-09T03:39:03.567Z,47.28
2023-01-09T03:41:31.061Z,59.10
2023-01-09T03:43:58.384Z,44.85
2023-01-09T03:46:25.814Z,66.55
2023-01-09T03:48:53.180Z,47.72
2023-01-09T03:51:20.663Z,50.70
2023-01-09T03:53:48.019Z,62.47
2023-01-09T03:56:15.517Z,43.13
2023-01-09T03:58:42.856Z,47.10
2023-01-09T04:01:13.078Z,77.80
2023-01-09T04:03:41.000Z,108.97
2023-01-09T04:06:10.988Z,67.53
2023-01-09T04:08:38.391Z,63.67
2023-01-09T04:11:05.836Z,73.00
2023-01-09T04:13:33.277Z,65.88
2023-01-09T04:16:00.708Z,58.63
2023-01-09T04:18:28.234Z,40.88
2023-01-09T04:20:55.657Z,44.72
2023-01-09T04:23:23.109Z,79.78
2023-01-09T04:25:50.476Z,51.30
2023-01-09T04:28:17.898Z,76.55
2023-01-09T04:30:45.624Z,47.70
2023-01-09T04:33:13.022Z,50.00
2023-01-09T04:35:40.589Z,45.05
2023-01-09T04:38:08.048Z,50.05
2023-01-09T04:40:35.410Z,68.55
2023-01-09T04:43:02.837Z,64.55
2023-01-09T04:45:30.298Z,76.03
2023-01-09T04:47:58.749Z,72.05
2023-01-09T04:50:26.201Z,69.75
2023-01-09T04:52:53.719Z,66.30
2023-01-09T04:55:21.119Z,53.22
2023-01-09T04:57:48.599Z,77.60
2023-01-09T05:00:16.293Z,62.70
2023-01-09T05:02:43.789Z,61.47
2023-01-09T05:05:12.097Z,55.92
2023-01-09T05:07:39.740Z,68.40
2023-01-09T05:10:07.719Z,38.88
2023-01-09T05:12:36.372Z,67.88
2023-01-09T05:15:04.432Z,68.82
2023-01-09T05:17:34.481Z,89.88
2023-01-09T05:20:02.091Z,77.15
2023-01-09T05:22:29.514Z,74.68
2023-01-09T05:24:57.965Z,66.60
2023-01-09T05:27:27.388Z,75.53
2023-01-09T05:29:54.730Z,46.70
2023-01-09T05:32:22.253Z,64.85
2023-01-09T05:34:49.700Z,69.03
2023-01-09T05:37:17.065Z,63.70
2023-01-09T05:39:44.549Z,51.17
2023-01-09T05:42:11.977Z,71.05
2023-01-09T05:44:39.537Z,97.93
2023-01-09T05:47:06.943Z,53.92
2023-01-09T05:49:34.353Z,49.13
2023-01-09T05:52:01.742Z,75.60
2023-01-09T05:54:29.161Z,84.57
2023-01-09T05:56:56.596Z,50.47
2023-01-09T05:59:24.052Z,47.10
2023-01-09T06:01:51.500Z,35.20
2023-01-09T06:04:19.745Z,49.40
2023-01-09T06:06:47.105Z,68.40
2023-01-09T06:09:14.572Z,46.25
2023-01-09T06:11:41.949Z,69.07
2023-01-09T06:14:09.409Z,58.70
2023-01-09T06:16:36.803Z,84.88
2023-01-09T06:19:05.850Z,80.78
2023-01-09T06:21:33.735Z,70.25
2023-01-09T06:24:01.147Z,51.17
2023-01-09T06:26:28.597Z,82.15
2023-01-09T06:28:56.338Z,67.05
2023-01-09T06:31:24.471Z,72.47
2023-01-09T06:33:52.048Z,64.60
2023-01-09T06:36:22.175Z,58.42
2023-01-09T06:38:49.914Z,102.22
2023-01-09T06:41:17.313Z,102.30
2023-01-09T06:43:44.786Z,59.60
2023-01-09T06:46:12.351Z,47.10
2023-01-09T06:48:39.751Z,62.85
2023-01-09T06:51:07.212Z,57.13
2023-01-09T06:53:35.199Z,71.55
2023-01-09T06:56:03.650Z,86.38
2023-01-09T06:58:31.108Z,62.13
2023-01-09T07:01:01.615Z,93.63
2023-01-09T07:03:29.701Z,70.10
2023-01-09T07:05:57.231Z,77.53
2023-01-09T07:08:24.794Z,52.28
2023-01-09T07:10:52.229Z,49.75
2023-01-09T07:13:19.622Z,62.92
2023-01-09T07:15:47.190Z,61.35
2023-01-09T07:18:14.635Z,50.83
2023-01-09T07:20:42.459Z,53.03
2023-01-09T07:23:12.994Z,52.17
2023-01-09T07:25:40.999Z,55.50
2023-01-09T07:28:08.335Z,52.40
2023-01-09T07:30:35.756Z,49.67
2023-01-09T07:33:04.103Z,69.50
2023-01-09T07:35:31.626Z,54.83
2023-01-09T07:37:59.145Z,68.53
2023-01-09T07:40:27.120Z,66.50
2023-01-09T07:42:54.800Z,61.75
2023-01-09T07:45:22.564Z,62.90
2023-01-09T07:47:49.995Z,85.07
2023-01-09T07:50:17.439Z,53.65
2023-01-09T07:52:48.350Z,56.92
2023-01-09T07:55:17.574Z,73.68
2023-01-09T07:57:48.591Z,71.57
2023-01-09T08:00:16.202Z,78.03
2023-01-09T08:02:43.638Z,59.85
2023-01-09T08:05:14.973Z,77.78
2023-01-09T08:07:42.511Z,95.72
2023-01-09T08:10:10.623Z,84.88
2023-01-09T08:12:38.155Z,83.70
2023-01-09T08:15:05.978Z,84.63
2023-01-09T08:17:33.457Z,73.78
2023-01-09T08:20:00.836Z,71.07
2023-01-09T08:22:28.228Z,75.95
2023-01-09T08:24:55.566Z,64.75
2023-01-09T08:27:22.994Z,71.88
2023-01-09T08:29:50.627Z,64.60
2023-01-09T08:32:18.079Z,59.60
2023-01-09T08:34:45.488Z,59.83
2023-01-09T08:37:14.505Z,63.50
2023-01-09T08:39:41.873Z,58.00
2023-01-09T08:42:27.994Z,60.60
2023-01-09T08:45:13.986Z,57.97
2023-01-09T08:47:41.610Z,64.13
2023-01-09T08:50:09.285Z,63.33
2023-01-09T08:52:36.707Z,60.30
2023-01-09T08:55:04.171Z,59.22
2023-01-09T08:57:31.758Z,69.00
2023-01-09T08:59:59.632Z,69.30
2023-01-09T09:02:27.146Z,72.68
2023-01-09T09:04:56.081Z,71.25
2023-01-09T09:07:26.843Z,69.10
2023-01-09T09:09:54.630Z,62.90
2023-01-09T09:12:22.836Z,60.40
2023-01-09T09:15:08.964Z,68.80
2023-01-09T09:17:36.834Z,76.43
2023-01-09T09:20:05.768Z,67.88
2023-01-09T09:22:33.198Z,69.28
2023-01-09T09:25:01.043Z,72.20
2023-01-09T09:27:28.460Z,72.57
2023-01-09T09:29:55.881Z,68.82
2023-01-09T09:32:23.398Z,67.50
2023-01-09T09:34:50.810Z,62.45
2023-01-09T09:37:18.211Z,60.55
2023-01-09T09:39:45.636Z,70.35
2023-01-09T09:42:58.701Z,65.55
2023-01-09T09:45:44.966Z,62.58
2023-01-09T09:48:33.637Z,65.88
2023-01-09T09:51:04.566Z,61.50
2023-01-09T09:53:44.453Z,63.50
2023-01-09T09:56:13.946Z,64.78
2023-01-09T09:58:42.785Z,56.72
2023-01-09T10:01:11.130Z,48.33
2023-01-09T10:03:40.594Z,45.88
2023-01-09T10:06:14.016Z,43.42
2023-01-09T10:09:02.400Z,48.38
2023-01-09T10:11:39.037Z,48.97
2023-01-09T10:14:13.299Z,49.58
2023-01-09T10:16:49.615Z,54.95
2023-01-09T10:19:26.161Z,55.92
2023-01-09T10:21:53.596Z,54.35
2023-01-09T10:24:24.285Z,47.20
2023-01-09T10:26:55.500Z,44.78
2023-01-09T10:29:33.067Z,48.88
2023-01-09T10:32:00.593Z,48.55
2023-01-09T10:34:30.209Z,50.65
2023-01-09T10:37:00.972Z,52.42
2023-01-09T10:39:40.763Z,49.95
2023-01-09T10:42:21.371Z,52.90
2023-01-09T10:45:03.583Z,60.72
2023-01-09T10:47:34.355Z,51.60
2023-01-09T10:50:03.172Z,52.75
2023-01-09T10:52:40.806Z,54.30
2023-01-09T10:55:19.307Z,58.35
2023-01-09T10:57:48.389Z,59.42
2023-01-09T11:00:23.054Z,57.92
2023-01-09T11:02:51.551Z,56.40
2023-01-09T11:05:27.990Z,64.15
2023-01-09T11:07:58.372Z,62.60
2023-01-09T11:10:44.624Z,61.60
2023-01-09T11:13:22.680Z,57.38
2023-01-09T11:16:07.329Z,64.47
2023-01-09T11:18:36.008Z,67.40
2023-01-09T11:21:22.077Z,68.22
2023-01-09T11:23:50.144Z,74.97
2023-01-09T11:26:28.084Z,69.40
2023-01-09T11:29:11.796Z,68.93
2023-01-09T11:31:40.535Z,69.75
2023-01-09T11:34:18.564Z,76.30
2023-01-09T11:36:46.677Z,69.15
2023-01-09T11:39:27.493Z,67.30
2023-01-09T11:42:02.009Z,66.85
2023-01-09T11:44:29.890Z,51.60
2023-01-09T11:46:57.363Z,56.13
2023-01-09T11:49:26.447Z,55.17
2023-01-09T11:52:12.816Z,65.05
2023-01-09T11:54:43.841Z,67.78
2023-01-09T11:57:12.516Z,63.25
2023-01-09T11:59:40.012Z,58.53
2023-01-09T12:02:34.475Z,59.97
2023-01-09T12:05:10.977Z,51.63
2023-01-09T12:07:50.110Z,51.47
2023-01-09T12:10:53.282Z,51.67
2023-01-09T12:13:27.056Z,53.78
2023-01-09T12:15:54.470Z,47.30
2023-01-09T12:18:41.188Z,49.22
2023-01-09T12:21:17.072Z,53.90
2023-01-09T12:24:01.328Z,51.35
2023-01-09T12:26:41.881Z,55.13
2023-01-09T12:29:41.564Z,51.78
2023-01-09T12:32:09.025Z,48.95
2023-01-09T12:34:57.241Z,48.33
2023-01-09T12:37:36.897Z,54.38
2023-01-09T12:40:14.127Z,44.88
2023-01-09T12:42:52.472Z,48.05
2023-01-09T12:45:38.520Z,48.72
2023-01-09T12:48:21.582Z,51.15
2023-01-09T12:51:09.506Z,51.22
2023-01-09T12:53:40.297Z,74.07
2023-01-09T12:56:10.081Z,68.50
2023-01-09T12:58:43.759Z,49.53
2023-01-09T13:01:16.050Z,43.78
2023-01-09T13:04:06.790Z,47.67
2023-01-09T13:06:35.118Z,51.67
2023-01-09T13:09:09.871Z,45.85
2023-01-09T13:11:44.473Z,48.38
2023-01-09T13:14:22.506Z,52.03
2023-01-09T13:16:51.928Z,47.88
2023-01-09T13:19:24.218Z,47.22
2023-01-09T13:21:52.684Z,47.25
2023-01-09T13:24:23.787Z,48.33
2023-01-09T13:26:53.814Z,49.67
2023-01-09T13:29:28.665Z,43.72
2023-01-09T13:31:56.164Z,43.65
2023-01-09T13:34:25.860Z,45.90
2023-01-09T13:36:54.410Z,47.08
2023-01-09T13:39:23.953Z,45.92
2023-01-09T13:42:21.410Z,50.42
2023-01-09T13:44:50.271Z,47.58
2023-01-09T13:47:17.980Z,39.63
2023-01-09T13:49:48.343Z,44.30
2023-01-09T13:52:34.398Z,44.17
2023-01-09T13:55:03.326Z,47.42
2023-01-09T13:57:38.560Z,51.35
2023-01-09T14:02:39.505Z,45.40
2023-01-09T14:05:09.970Z,40.40
2023-01-09T14:07:38.317Z,43.60
2023-01-09T14:10:07.223Z,46.67
2023-01-09T14:12:40.741Z,47.95
2023-01-09T14:15:21.475Z,45.00
2023-01-09T14:17:49.868Z,44.88
2023-01-09T14:20:29.540Z,52.08
2023-01-09T14:23:18.178Z,72.25
2023-01-09T14:25:46.061Z,89.10
2023-01-09T14:28:20.781Z,47.88
2023-01-09T14:30:53.976Z,44.60
2023-01-09T14:33:27.446Z,57.08
2023-01-09T14:36:13.415Z,62.50
2023-01-09T14:38:52.884Z,55.17
2023-01-09T14:41:46.200Z,56.58
2023-01-09T14:44:16.469Z,61.70
2023-01-09T14:46:45.065Z,76.20
2023-01-09T14:49:32.679Z,111.88
2023-01-09T14:52:03.652Z,85.70
2023-01-09T14:54:34.415Z,79.40
2023-01-09T14:57:02.681Z,79.57
2023-01-09T14:59:30.181Z,59.63
2023-01-09T15:01:59.620Z,86.43
2023-01-09T15:04:31.756Z,73.45
2023-01-09T15:06:59.446Z,66.88
2023-01-09T15:09:33.548Z,69.93
2023-01-09T15:12:05.032Z,80.88
2023-01-09T15:14:34.855Z,122.50
2023-01-09T15:17:02.873Z,130.20
2023-01-09T15:19:31.936Z,104.90
2023-01-09T15:22:06.648Z,176.07
2023-01-09T15:24:34.930Z,120.38
2023-01-09T15:27:11.121Z,104.45
2023-01-09T15:29:38.495Z,155.23
2023-01-09T15:32:10.803Z,134.32
2023-01-09T15:34:38.294Z,114.93
2023-01-09T15:37:05.820Z,122.93
2023-01-09T15:39:36.209Z,103.75
2023-01-09T15:42:23.182Z,100.57
2023-01-09T15:44:52.251Z,79.63
2023-01-09T15:47:29.340Z,105.15
2023-01-09T15:49:57.759Z,109.35
2023-01-09T15:52:25.387Z,114.78
2023-01-09T15:54:54.218Z,102.78
2023-01-09T15:57:27.877Z,113.13
2023-01-09T15:59:56.045Z,121.45
2023-01-09T16:02:43.320Z,105.00
2023-01-09T16:05:17.835Z,105.63
2023-01-09T16:07:46.241Z,122.55
2023-01-09T16:10:40.048Z,97.70
2023-01-09T16:13:07.559Z,97.93
2023-01-09T16:15:35.569Z,145.00
2023-01-09T16:18:18.121Z,138.02
2023-01-09T16:20:46.228Z,105.07
2023-01-09T16:23:25.125Z,112.88
2023-01-09T16:26:02.813Z,110.60
2023-01-09T16:28:30.922Z,94.57
2023-01-09T16:31:08.318Z,115.75
2023-01-09T16:33:35.964Z,124.28
2023-01-09T16:36:05.308Z,127.75
2023-01-09T16:38:32.836Z,84.07
2023-01-09T16:41:19.100Z,92.80
2023-01-09T16:43:47.125Z,93.03
2023-01-09T16:46:15.319Z,87.18
2023-01-09T16:48:43.678Z,77.70
2023-01-09T16:51:15.837Z,91.85
2023-01-09T16:53:44.126Z,84.43
2023-01-09T16:56:19.864Z,107.88
2023-01-09T16:58:47.481Z,123.28
2023-01-09T17:01:15.845Z,104.47
2023-01-09T17:03:44.404Z,78.90
2023-01-09T17:06:15.897Z,89.95
2023-01-09T17:08:44.548Z,95.57
2023-01-09T17:11:19.974Z,82.25
2023-01-09T17:13:48.216Z,89.88
2023-01-09T17:16:16.677Z,73.35
2023-01-09T17:18:44.771Z,89.05
2023-01-09T17:21:16.037Z,87.47
2023-01-09T17:23:43.788Z,134.02
2023-01-09T17:26:35.253Z,156.73
2023-01-09T17:29:03.657Z,136.07
2023-01-09T17:31:31.214Z,164.40
2023-01-09T17:33:59.279Z,197.90
2023-01-09T17:36:32.268Z,114.15
2023-01-09T17:39:00.769Z,129.52
2023-01-09T17:41:29.212Z,188.70
2023-01-09T17:43:57.212Z,169.93
2023-01-09T17:46:32.445Z,186.07
2023-01-09T17:49:00.640Z,174.77
2023-01-09T17:51:30.138Z,178.82
2023-01-09T17:53:58.062Z,169.85
2023-01-09T17:56:26.679Z,155.18
2023-01-09T17:58:54.472Z,132.73
2023-01-09T18:01:22.427Z,143.52
2023-01-09T18:03:50.700Z,114.07
2023-01-09T18:06:19.521Z,119.05
2023-01-09T18:08:47.217Z,102.28
2023-01-09T18:11:19.497Z,81.03
2023-01-09T18:13:47.608Z,62.38
2023-01-09T18:16:16.307Z,68.85
2023-01-09T18:18:45.192Z,72.35
2023-01-09T18:21:15.343Z,67.90
2023-01-09T18:23:43.790Z,68.32
2023-01-09T18:26:12.624Z,77.65
2023-01-09T18:28:40.245Z,72.15
2023-01-09T18:31:07.730Z,71.05
2023-01-09T18:33:35.312Z,53.70
2023-01-09T18:36:07.820Z,60.47
2023-01-09T18:38:35.427Z,55.25
2023-01-09T18:41:04.155Z,56.58
2023-01-09T18:43:31.703Z,51.25
2023-01-09T18:45:59.186Z,43.85
2023-01-09T18:48:26.849Z,47.50
2023-01-09T18:51:02.503Z,50.13
2023-01-09T18:53:30.146Z,44.42
2023-01-09T18:55:57.556Z,42.55
2023-01-09T18:58:24.934Z,79.63
2023-01-09T19:00:55.201Z,69.82
2023-01-09T19:03:22.756Z,89.50
2023-01-09T19:05:50.221Z,66.40
2023-01-09T19:08:21.433Z,71.43
2023-01-09T19:10:53.115Z,66.07
2023-01-09T19:13:20.848Z,57.35
2023-01-09T19:15:48.223Z,46.65
2023-01-09T19:18:15.877Z,46.63
2023-01-09T19:20:43.221Z,49.75
2023-01-09T19:23:10.629Z,50.95
2023-01-09T19:25:38.551Z,54.95
2023-01-09T19:28:06.003Z,54.42
2023-01-09T19:30:34.773Z,86.25
2023-01-09T19:33:02.288Z,106.60
2023-01-09T19:35:29.773Z,97.43
2023-01-09T19:37:57.243Z,102.65
2023-01-09T19:40:25.621Z,90.57
2023-01-09T19:42:56.451Z,103.25
2023-01-09T19:45:24.126Z,95.32
2023-01-09T19:47:51.776Z,105.65
2023-01-09T19:50:19.468Z,107.55
2023-01-09T19:52:47.816Z,95.35
2023-01-09T19:55:15.346Z,67.05
2023-01-09T19:57:44.224Z,65.90
2023-01-09T20:00:12.400Z,75.65
2023-01-09T20:02:41.031Z,56.00
2023-01-09T20:05:08.803Z,65.53
2023-01-09T20:07:36.390Z,48.15
2023-01-09T20:10:03.923Z,48.15
2023-01-09T20:12:32.256Z,43.45
2023-01-09T20:14:59.653Z,46.15
2023-01-09T20:17:27.495Z,43.10
2023-01-09T20:19:54.992Z,48.65
2023-01-09T20:22:25.152Z,41.92
2023-01-09T20:24:52.717Z,42.00
2023-01-09T20:27:20.181Z,41.42
2023-01-09T20:29:48.878Z,43.10
2023-01-09T20:32:17.542Z,41.50
2023-01-09T20:34:45.171Z,42.38
2023-01-09T20:37:12.752Z,39.65
2023-01-09T20:39:40.246Z,37.03
2023-01-09T20:42:07.705Z,37.83
2023-01-09T20:44:35.088Z,35.28
2023-01-09T20:47:02.703Z,38.75
2023-01-09T20:49:30.075Z,37.67
2023-01-09T20:51:57.553Z,38.45
2023-01-09T20:54:25.678Z,38.70
2023-01-09T20:56:53.658Z,37.10
2023-01-09T20:59:21.977Z,38.50
2023-01-09T21:01:50.466Z,38.28
2023-01-09T21:04:18.308Z,37.67
2023-01-09T21:06:47.612Z,38.38
2023-01-09T21:09:16.429Z,37.67
2023-01-09T21:11:43.761Z,36.38
2023-01-09T21:14:11.207Z,39.60
2023-01-09T21:16:38.697Z,36.65
2023-01-09T21:19:06.231Z,33.28
2023-01-09T21:21:33.623Z,33.30
2023-01-09T21:24:01.213Z,33.47
2023-01-09T21:26:30.627Z,33.50
2023-01-09T21:28:59.983Z,36.05
2023-01-09T21:31:38.478Z,31.40
2023-01-09T21:34:07.266Z,32.75
2023-01-09T21:36:38.031Z,34.75
2023-01-09T21:39:08.344Z,36.30
2023-01-09T21:41:55.141Z,32.42
2023-01-09T21:44:40.982Z,31.83
2023-01-09T21:49:36.212Z,33.38
2023-01-09T21:52:04.671Z,34.10
2023-01-09T21:54:32.425Z,32.83
2023-01-09T21:57:00.581Z,34.58
2023-01-09T21:59:28.959Z,33.17
2023-01-09T22:01:56.842Z,31.58
2023-01-09T22:04:25.098Z,32.58
2023-01-09T22:06:52.791Z,33.17
2023-01-09T22:09:20.342Z,32.28
2023-01-09T22:11:47.984Z,32.13
2023-01-09T22:14:16.768Z,30.95
2023-01-09T22:16:44.874Z,29.95
2023-01-09T22:19:13.102Z,33.78
2023-01-09T22:21:40.686Z,30.85
2023-01-09T22:24:08.127Z,33.75
2023-01-09T22:26:35.625Z,34.67
2023-01-09T22:29:03.139Z,34.80
2023-01-09T22:31:32.869Z,33.40
2023-01-09T22:34:00.853Z,34.22
2023-01-09T22:36:29.285Z,37.97
2023-01-09T22:38:57.691Z,33.25
2023-01-09T22:41:26.198Z,34.90
2023-01-09T22:43:53.751Z,35.35
2023-01-09T22:46:21.285Z,33.53
2023-01-09T22:48:48.783Z,36.05
2023-01-09T22:51:17.327Z,34.13
2023-01-09T22:53:45.244Z,33.30
2023-01-09T22:56:13.939Z,37.33
2023-01-09T22:58:41.471Z,37.95
2023-01-09T23:01:11.800Z,35.72
2023-01-09T23:03:39.581Z,34.45
2023-01-09T23:06:08.628Z,34.40
2023-01-09T23:08:36.320Z,33.58
2023-01-09T23:11:06.414Z,38.08
2023-01-09T23:13:34.073Z,34.58
2023-01-09T23:16:01.854Z,32.70
2023-01-09T23:18:29.837Z,31.83
2023-01-09T23:21:02.148Z,32.58
2023-01-09T23:23:30.304Z,36.17
2023-01-09T23:25:59.722Z,34.45
2023-01-09T23:28:27.927Z,34.63
2023-01-09T23:30:55.424Z,33.85
2023-01-09T23:33:22.813Z,35.90
2023-01-09T23:35:50.279Z,38.28
2023-01-09T23:38:17.664Z,34.97
2023-01-09T23:40:45.175Z,36.53
2023-01-09T23:43:13.326Z,42.63
2023-01-09T23:45:41.963Z,34.72
2023-01-09T23:48:10.458Z,35.75
2023-01-09T23:50:37.980Z,39.58
2023-01-09T23:53:05.817Z,40.05
2023-01-09T23:55:33.215Z,36.70
2023-01-09T23:58:00.824Z,36.28
